sensor_id;sensor_type;location;lat;lon;timestamp;P1;durP1;ratioP1;P2;durP2;ratioP2
5867;SDS011;2960;49.142;7.768;2022-08-19T00:00:37;15.90;;;7.15;;
5867;SDS011;2960;49.142;7.768;2022-08-19T00:03:05;16.93;;;7.10;;
5867;SDS011;2960;49.142;7.768;2022-08-19T00:05:33;16.13;;;7.40;;
5867;SDS011;2960;49.142;7.768;2022-08-19T00:08:01;18.43;;;7.13;;
5867;SDS011;2960;49.142;7.768;2022-08-19T00:10:29;15.30;;;7.17;;
5867;SDS011;2960;49.142;7.768;2022-08-19T00:12:56;14.37;;;6.40;;
5867;SDS011;2960;49.142;7.768;2022-08-19T00:15:23;14.43;;;6.73;;
5867;SDS011;2960;49.142;7.768;2022-08-19T00:21:27;16.50;;;7.60;;
5867;SDS011;2960;49.142;7.768;2022-08-19T00:23:55;15.70;;;6.97;;
5867;SDS011;2960;49.142;7.768;2022-08-19T00:26:23;15.83;;;7.70;;
5867;SDS011;2960;49.142;7.768;2022-08-19T00:28:51;15.70;;;6.83;;
5867;SDS011;2960;49.142;7.768;2022-08-19T00:31:18;14.00;;;7.10;;
5867;SDS011;2960;49.142;7.768;2022-08-19T00:33:45;16.00;;;7.23;;
5867;SDS011;2960;49.142;7.768;2022-08-19T00:36:14;16.30;;;7.50;;
5867;SDS011;2960;49.142;7.768;2022-08-19T00:38:42;15.43;;;7.10;;
5867;SDS011;2960;49.142;7.768;2022-08-19T00:41:11;15.60;;;6.67;;
5867;SDS011;2960;49.142;7.768;2022-08-19T00:43:41;14.87;;;6.80;;
5867;SDS011;2960;49.142;7.768;2022-08-19T00:46:08;16.47;;;7.50;;
5867;SDS011;2960;49.142;7.768;2022-08-19T00:48:35;17.47;;;7.90;;
5867;SDS011;2960;49.142;7.768;2022-08-19T00:51:03;14.70;;;7.00;;
5867;SDS011;2960;49.142;7.768;2022-08-19T00:53:32;16.77;;;7.63;;
5867;SDS011;2960;49.142;7.768;2022-08-19T00:56:01;16.17;;;6.73;;
5867;SDS011;2960;49.142;7.768;2022-08-19T00:58:32;16.43;;;7.63;;
5867;SDS011;2960;49.142;7.768;2022-08-19T01:01:02;17.83;;;8.00;;
5867;SDS011;2960;49.142;7.768;2022-08-19T01:03:32;15.97;;;8.03;;
5867;SDS011;2960;49.142;7.768;2022-08-19T01:05:59;15.97;;;7.70;;
5867;SDS011;2960;49.142;7.768;2022-08-19T01:08:27;16.37;;;7.90;;
5867;SDS011;2960;49.142;7.768;2022-08-19T01:10:56;15.60;;;7.80;;
5867;SDS011;2960;49.142;7.768;2022-08-19T01:13:27;17.13;;;8.00;;
5867;SDS011;2960;49.142;7.768;2022-08-19T01:15:59;17.10;;;8.10;;
5867;SDS011;2960;49.142;7.768;2022-08-19T01:18:29;16.80;;;8.03;;
5867;SDS011;2960;49.142;7.768;2022-08-19T01:21:02;16.70;;;7.50;;
5867;SDS011;2960;49.142;7.768;2022-08-19T01:23:37;15.20;;;7.50;;
5867;SDS011;2960;49.142;7.768;2022-08-19T01:26:11;15.77;;;7.20;;
5867;SDS011;2960;49.142;7.768;2022-08-19T01:28:49;17.37;;;7.97;;
5867;SDS011;2960;49.142;7.768;2022-08-19T01:31:20;17.47;;;8.07;;
5867;SDS011;2960;49.142;7.768;2022-08-19T01:33:50;17.37;;;8.30;;
5867;SDS011;2960;49.142;7.768;2022-08-19T01:36:22;19.23;;;8.60;;
5867;SDS011;2960;49.142;7.768;2022-08-19T01:38:53;16.00;;;7.80;;
5867;SDS011;2960;49.142;7.768;2022-08-19T01:41:20;16.83;;;8.00;;
5867;SDS011;2960;49.142;7.768;2022-08-19T01:43:48;16.10;;;7.63;;
5867;SDS011;2960;49.142;7.768;2022-08-19T01:46:16;18.13;;;8.30;;
5867;SDS011;2960;49.142;7.768;2022-08-19T01:48:43;16.57;;;8.10;;
5867;SDS011;2960;49.142;7.768;2022-08-19T01:51:12;17.77;;;8.47;;
5867;SDS011;2960;49.142;7.768;2022-08-19T01:53:40;16.80;;;8.13;;
5867;SDS011;2960;49.142;7.768;2022-08-19T01:56:09;15.40;;;7.17;;
5867;SDS011;2960;49.142;7.768;2022-08-19T01:58:38;16.23;;;7.83;;
5867;SDS011;2960;49.142;7.768;2022-08-19T02:01:12;16.40;;;8.00;;
5867;SDS011;2960;49.142;7.768;2022-08-19T02:03:39;17.57;;;8.47;;
5867;SDS011;2960;49.142;7.768;2022-08-19T02:06:07;17.43;;;7.87;;
5867;SDS011;2960;49.142;7.768;2022-08-19T02:08:35;17.80;;;8.13;;
5867;SDS011;2960;49.142;7.768;2022-08-19T02:11:04;17.93;;;7.47;;
5867;SDS011;2960;49.142;7.768;2022-08-19T02:13:34;15.70;;;7.50;;
5867;SDS011;2960;49.142;7.768;2022-08-19T02:16:02;16.20;;;7.33;;
5867;SDS011;2960;49.142;7.768;2022-08-19T02:18:29;17.77;;;8.63;;
5867;SDS011;2960;49.142;7.768;2022-08-19T02:20:56;15.60;;;7.83;;
5867;SDS011;2960;49.142;7.768;2022-08-19T02:23:23;17.33;;;8.03;;
5867;SDS011;2960;49.142;7.768;2022-08-19T02:25:50;17.87;;;8.50;;
5867;SDS011;2960;49.142;7.768;2022-08-19T02:28:18;17.80;;;7.87;;
5867;SDS011;2960;49.142;7.768;2022-08-19T02:30:46;16.77;;;8.00;;
5867;SDS011;2960;49.142;7.768;2022-08-19T02:33:14;15.87;;;7.93;;
5867;SDS011;2960;49.142;7.768;2022-08-19T02:35:42;14.90;;;7.20;;
5867;SDS011;2960;49.142;7.768;2022-08-19T02:38:09;15.50;;;7.40;;
5867;SDS011;2960;49.142;7.768;2022-08-19T02:40:52;17.47;;;7.73;;
5867;SDS011;2960;49.142;7.768;2022-08-19T02:43:25;19.87;;;7.57;;
5867;SDS011;2960;49.142;7.768;2022-08-19T02:45:56;17.83;;;7.70;;
5867;SDS011;2960;49.142;7.768;2022-08-19T02:48:24;16.73;;;7.70;;
5867;SDS011;2960;49.142;7.768;2022-08-19T02:50:52;17.97;;;7.63;;
5867;SDS011;2960;49.142;7.768;2022-08-19T02:53:21;14.67;;;6.63;;
5867;SDS011;2960;49.142;7.768;2022-08-19T02:55:49;15.97;;;6.97;;
5867;SDS011;2960;49.142;7.768;2022-08-19T02:58:17;17.33;;;7.90;;
5867;SDS011;2960;49.142;7.768;2022-08-19T03:00:45;15.83;;;7.13;;
5867;SDS011;2960;49.142;7.768;2022-08-19T03:03:16;16.40;;;7.13;;
5867;SDS011;2960;49.142;7.768;2022-08-19T03:05:45;17.10;;;7.70;;
5867;SDS011;2960;49.142;7.768;2022-08-19T03:08:12;15.97;;;7.00;;
5867;SDS011;2960;49.142;7.768;2022-08-19T03:10:40;16.00;;;7.33;;
5867;SDS011;2960;49.142;7.768;2022-08-19T03:13:10;17.63;;;7.37;;
5867;SDS011;2960;49.142;7.768;2022-08-19T03:15:40;15.50;;;7.57;;
5867;SDS011;2960;49.142;7.768;2022-08-19T03:18:08;17.17;;;8.60;;
5867;SDS011;2960;49.142;7.768;2022-08-19T03:20:41;15.97;;;7.40;;
5867;SDS011;2960;49.142;7.768;2022-08-19T03:23:09;16.13;;;7.20;;
5867;SDS011;2960;49.142;7.768;2022-08-19T03:25:39;15.03;;;7.00;;
5867;SDS011;2960;49.142;7.768;2022-08-19T03:28:08;14.77;;;7.07;;
5867;SDS011;2960;49.142;7.768;2022-08-19T03:30:36;16.97;;;7.77;;
5867;SDS011;2960;49.142;7.768;2022-08-19T03:33:05;16.73;;;7.03;;
5867;SDS011;2960;49.142;7.768;2022-08-19T03:35:33;16.20;;;7.67;;
5867;SDS011;2960;49.142;7.768;2022-08-19T03:38:03;18.27;;;7.83;;
5867;SDS011;2960;49.142;7.768;2022-08-19T03:40:30;19.00;;;8.30;;
5867;SDS011;2960;49.142;7.768;2022-08-19T03:42:59;16.60;;;7.10;;
5867;SDS011;2960;49.142;7.768;2022-08-19T03:45:27;16.87;;;7.00;;
5867;SDS011;2960;49.142;7.768;2022-08-19T03:47:54;17.73;;;7.70;;
5867;SDS011;2960;49.142;7.768;2022-08-19T03:50:22;16.47;;;7.50;;
5867;SDS011;2960;49.142;7.768;2022-08-19T03:52:49;17.73;;;7.53;;
5867;SDS011;2960;49.142;7.768;2022-08-19T03:55:19;17.30;;;8.03;;
5867;SDS011;2960;49.142;7.768;2022-08-19T03:57:46;17.47;;;7.87;;
5867;SDS011;2960;49.142;7.768;2022-08-19T04:00:14;16.47;;;7.07;;
5867;SDS011;2960;49.142;7.768;2022-08-19T04:02:42;17.37;;;7.80;;
5867;SDS011;2960;49.142;7.768;2022-08-19T04:05:09;17.90;;;7.83;;
5867;SDS011;2960;49.142;7.768;2022-08-19T04:07:39;18.57;;;7.23;;
5867;SDS011;2960;49.142;7.768;2022-08-19T04:10:06;16.63;;;7.93;;
5867;SDS011;2960;49.142;7.768;2022-08-19T04:12:35;17.27;;;7.50;;
5867;SDS011;2960;49.142;7.768;2022-08-19T04:15:03;16.43;;;7.40;;
5867;SDS011;2960;49.142;7.768;2022-08-19T04:17:31;15.77;;;6.90;;
5867;SDS011;2960;49.142;7.768;2022-08-19T04:19:58;17.47;;;7.30;;
5867;SDS011;2960;49.142;7.768;2022-08-19T04:22:26;16.60;;;8.03;;
5867;SDS011;2960;49.142;7.768;2022-08-19T04:24:53;15.27;;;6.83;;
5867;SDS011;2960;49.142;7.768;2022-08-19T04:27:20;17.03;;;8.00;;
5867;SDS011;2960;49.142;7.768;2022-08-19T04:29:49;18.87;;;8.23;;
5867;SDS011;2960;49.142;7.768;2022-08-19T04:32:17;18.77;;;7.77;;
5867;SDS011;2960;49.142;7.768;2022-08-19T04:34:44;15.73;;;7.33;;
5867;SDS011;2960;49.142;7.768;2022-08-19T04:37:11;19.50;;;7.80;;
5867;SDS011;2960;49.142;7.768;2022-08-19T04:39:39;18.30;;;8.30;;
5867;SDS011;2960;49.142;7.768;2022-08-19T04:42:23;18.47;;;8.70;;
5867;SDS011;2960;49.142;7.768;2022-08-19T04:45:09;18.87;;;8.20;;
5867;SDS011;2960;49.142;7.768;2022-08-19T04:47:38;15.90;;;7.47;;
5867;SDS011;2960;49.142;7.768;2022-08-19T04:50:08;17.83;;;7.40;;
5867;SDS011;2960;49.142;7.768;2022-08-19T04:52:36;18.43;;;8.07;;
5867;SDS011;2960;49.142;7.768;2022-08-19T04:55:08;16.70;;;7.90;;
5867;SDS011;2960;49.142;7.768;2022-08-19T04:57:35;17.83;;;8.70;;
5867;SDS011;2960;49.142;7.768;2022-08-19T05:00:05;17.00;;;8.00;;
5867;SDS011;2960;49.142;7.768;2022-08-19T05:02:36;17.33;;;7.30;;
5867;SDS011;2960;49.142;7.768;2022-08-19T05:05:04;16.00;;;7.17;;
5867;SDS011;2960;49.142;7.768;2022-08-19T05:07:32;16.67;;;7.50;;
5867;SDS011;2960;49.142;7.768;2022-08-19T05:09:59;16.93;;;7.57;;
5867;SDS011;2960;49.142;7.768;2022-08-19T05:12:26;19.80;;;7.57;;
5867;SDS011;2960;49.142;7.768;2022-08-19T05:14:54;19.17;;;8.10;;
5867;SDS011;2960;49.142;7.768;2022-08-19T05:17:24;16.23;;;7.37;;
5867;SDS011;2960;49.142;7.768;2022-08-19T05:19:51;17.30;;;7.40;;
5867;SDS011;2960;49.142;7.768;2022-08-19T05:22:36;16.90;;;7.70;;
5867;SDS011;2960;49.142;7.768;2022-08-19T05:25:04;17.03;;;7.80;;
5867;SDS011;2960;49.142;7.768;2022-08-19T05:27:35;17.20;;;7.70;;
5867;SDS011;2960;49.142;7.768;2022-08-19T05:30:02;17.77;;;7.70;;
5867;SDS011;2960;49.142;7.768;2022-08-19T05:32:32;15.93;;;7.17;;
5867;SDS011;2960;49.142;7.768;2022-08-19T05:35:01;16.47;;;7.07;;
5867;SDS011;2960;49.142;7.768;2022-08-19T05:37:29;16.13;;;7.30;;
5867;SDS011;2960;49.142;7.768;2022-08-19T05:39:56;16.00;;;7.30;;
5867;SDS011;2960;49.142;7.768;2022-08-19T05:42:23;16.30;;;7.27;;
5867;SDS011;2960;49.142;7.768;2022-08-19T05:44:50;15.40;;;7.10;;
5867;SDS011;2960;49.142;7.768;2022-08-19T05:47:18;17.20;;;8.10;;
5867;SDS011;2960;49.142;7.768;2022-08-19T05:49:47;15.47;;;6.63;;
5867;SDS011;2960;49.142;7.768;2022-08-19T05:52:16;17.80;;;7.53;;
5867;SDS011;2960;49.142;7.768;2022-08-19T05:54:43;17.00;;;7.80;;
5867;SDS011;2960;49.142;7.768;2022-08-19T05:57:13;15.20;;;7.13;;
5867;SDS011;2960;49.142;7.768;2022-08-19T05:59:40;16.10;;;7.20;;
5867;SDS011;2960;49.142;7.768;2022-08-19T06:02:08;16.80;;;7.20;;
5867;SDS011;2960;49.142;7.768;2022-08-19T06:04:38;15.40;;;7.53;;
5867;SDS011;2960;49.142;7.768;2022-08-19T06:07:09;15.60;;;7.30;;
5867;SDS011;2960;49.142;7.768;2022-08-19T06:09:36;16.63;;;6.90;;
5867;SDS011;2960;49.142;7.768;2022-08-19T06:12:03;16.53;;;7.10;;
5867;SDS011;2960;49.142;7.768;2022-08-19T06:14:32;17.00;;;7.20;;
5867;SDS011;2960;49.142;7.768;2022-08-19T06:17:01;15.80;;;7.07;;
5867;SDS011;2960;49.142;7.768;2022-08-19T06:19:29;17.00;;;6.93;;
5867;SDS011;2960;49.142;7.768;2022-08-19T06:21:57;15.97;;;6.97;;
5867;SDS011;2960;49.142;7.768;2022-08-19T06:24:27;16.90;;;7.43;;
5867;SDS011;2960;49.142;7.768;2022-08-19T06:26:57;17.07;;;7.00;;
5867;SDS011;2960;49.142;7.768;2022-08-19T06:29:25;16.47;;;6.90;;
5867;SDS011;2960;49.142;7.768;2022-08-19T06:31:55;18.07;;;7.97;;
5867;SDS011;2960;49.142;7.768;2022-08-19T06:34:24;17.33;;;8.10;;
5867;SDS011;2960;49.142;7.768;2022-08-19T06:36:53;16.83;;;8.07;;
5867;SDS011;2960;49.142;7.768;2022-08-19T06:39:25;17.50;;;7.53;;
5867;SDS011;2960;49.142;7.768;2022-08-19T06:41:58;17.70;;;8.30;;
5867;SDS011;2960;49.142;7.768;2022-08-19T06:44:29;17.37;;;7.40;;
5867;SDS011;2960;49.142;7.768;2022-08-19T06:47:00;17.53;;;7.30;;
5867;SDS011;2960;49.142;7.768;2022-08-19T06:49:29;17.17;;;8.20;;
5867;SDS011;2960;49.142;7.768;2022-08-19T06:51:57;17.00;;;8.00;;
5867;SDS011;2960;49.142;7.768;2022-08-19T06:54:25;16.77;;;7.80;;
5867;SDS011;2960;49.142;7.768;2022-08-19T06:56:55;16.90;;;7.90;;
5867;SDS011;2960;49.142;7.768;2022-08-19T06:59:23;20.27;;;7.90;;
5867;SDS011;2960;49.142;7.768;2022-08-19T07:01:52;17.87;;;8.43;;
5867;SDS011;2960;49.142;7.768;2022-08-19T07:04:23;18.00;;;7.70;;
5867;SDS011;2960;49.142;7.768;2022-08-19T07:06:56;16.33;;;7.57;;
5867;SDS011;2960;49.142;7.768;2022-08-19T07:09:28;17.07;;;7.53;;
5867;SDS011;2960;49.142;7.768;2022-08-19T07:11:56;16.63;;;7.50;;
5867;SDS011;2960;49.142;7.768;2022-08-19T07:14:23;17.60;;;7.13;;
5867;SDS011;2960;49.142;7.768;2022-08-19T07:16:54;16.50;;;7.37;;
5867;SDS011;2960;49.142;7.768;2022-08-19T07:19:24;15.40;;;7.33;;
5867;SDS011;2960;49.142;7.768;2022-08-19T07:21:52;17.37;;;8.20;;
5867;SDS011;2960;49.142;7.768;2022-08-19T07:24:22;18.73;;;7.80;;
5867;SDS011;2960;49.142;7.768;2022-08-19T07:26:53;17.80;;;7.90;;
5867;SDS011;2960;49.142;7.768;2022-08-19T07:29:28;18.83;;;8.17;;
5867;SDS011;2960;49.142;7.768;2022-08-19T07:31:58;19.17;;;8.10;;
5867;SDS011;2960;49.142;7.768;2022-08-19T07:34:27;16.20;;;7.80;;
5867;SDS011;2960;49.142;7.768;2022-08-19T07:36:58;17.27;;;7.90;;
5867;SDS011;2960;49.142;7.768;2022-08-19T07:39:27;17.90;;;8.37;;
5867;SDS011;2960;49.142;7.768;2022-08-19T07:42:01;17.33;;;8.30;;
5867;SDS011;2960;49.142;7.768;2022-08-19T07:44:32;16.70;;;8.20;;
5867;SDS011;2960;49.142;7.768;2022-08-19T07:47:00;16.63;;;7.43;;
5867;SDS011;2960;49.142;7.768;2022-08-19T07:49:27;18.00;;;8.47;;
5867;SDS011;2960;49.142;7.768;2022-08-19T07:51:55;16.07;;;7.73;;
5867;SDS011;2960;49.142;7.768;2022-08-19T07:54:26;17.90;;;7.80;;
5867;SDS011;2960;49.142;7.768;2022-08-19T07:56:56;15.33;;;7.60;;
5867;SDS011;2960;49.142;7.768;2022-08-19T07:59:25;16.87;;;7.50;;
5867;SDS011;2960;49.142;7.768;2022-08-19T08:01:53;15.83;;;7.20;;
5867;SDS011;2960;49.142;7.768;2022-08-19T08:04:20;16.40;;;7.60;;
5867;SDS011;2960;49.142;7.768;2022-08-19T08:07:05;15.70;;;6.70;;
5867;SDS011;2960;49.142;7.768;2022-08-19T08:09:59;17.00;;;7.33;;
5867;SDS011;2960;49.142;7.768;2022-08-19T08:12:28;16.60;;;7.47;;
5867;SDS011;2960;49.142;7.768;2022-08-19T08:15:00;15.13;;;7.37;;
5867;SDS011;2960;49.142;7.768;2022-08-19T08:17:32;15.37;;;7.07;;
5867;SDS011;2960;49.142;7.768;2022-08-19T08:20:01;17.90;;;7.73;;
5867;SDS011;2960;49.142;7.768;2022-08-19T08:22:31;15.50;;;7.57;;
5867;SDS011;2960;49.142;7.768;2022-08-19T08:25:22;15.20;;;7.07;;
5867;SDS011;2960;49.142;7.768;2022-08-19T08:27:50;15.20;;;6.83;;
5867;SDS011;2960;49.142;7.768;2022-08-19T08:30:19;17.23;;;7.40;;
5867;SDS011;2960;49.142;7.768;2022-08-19T08:32:49;15.77;;;7.60;;
5867;SDS011;2960;49.142;7.768;2022-08-19T08:35:18;13.73;;;6.43;;
5867;SDS011;2960;49.142;7.768;2022-08-19T08:37:48;13.87;;;6.13;;
5867;SDS011;2960;49.142;7.768;2022-08-19T08:40:19;18.90;;;6.70;;
5867;SDS011;2960;49.142;7.768;2022-08-19T08:42:54;15.70;;;6.60;;
5867;SDS011;2960;49.142;7.768;2022-08-19T08:45:28;15.87;;;6.90;;
5867;SDS011;2960;49.142;7.768;2022-08-19T08:47:57;14.53;;;6.53;;
5867;SDS011;2960;49.142;7.768;2022-08-19T08:50:29;15.43;;;6.60;;
5867;SDS011;2960;49.142;7.768;2022-08-19T08:53:02;13.70;;;6.00;;
5867;SDS011;2960;49.142;7.768;2022-08-19T08:55:32;15.20;;;6.73;;
5867;SDS011;2960;49.142;7.768;2022-08-19T08:58:01;14.80;;;6.77;;
5867;SDS011;2960;49.142;7.768;2022-08-19T09:00:34;13.70;;;5.47;;
5867;SDS011;2960;49.142;7.768;2022-08-19T09:03:06;13.40;;;5.80;;
5867;SDS011;2960;49.142;7.768;2022-08-19T09:05:47;13.77;;;6.17;;
5867;SDS011;2960;49.142;7.768;2022-08-19T09:08:31;14.00;;;6.67;;
5867;SDS011;2960;49.142;7.768;2022-08-19T09:11:07;14.90;;;6.77;;
5867;SDS011;2960;49.142;7.768;2022-08-19T09:13:44;14.70;;;6.80;;
5867;SDS011;2960;49.142;7.768;2022-08-19T09:16:26;15.17;;;7.00;;
5867;SDS011;2960;49.142;7.768;2022-08-19T09:18:55;14.33;;;7.00;;
5867;SDS011;2960;49.142;7.768;2022-08-19T09:21:31;14.67;;;7.27;;
5867;SDS011;2960;49.142;7.768;2022-08-19T09:23:58;16.17;;;8.30;;
5867;SDS011;2960;49.142;7.768;2022-08-19T09:26:25;17.63;;;8.90;;
5867;SDS011;2960;49.142;7.768;2022-08-19T09:28:54;19.33;;;8.90;;
5867;SDS011;2960;49.142;7.768;2022-08-19T09:31:24;18.00;;;8.90;;
5867;SDS011;2960;49.142;7.768;2022-08-19T09:33:57;18.50;;;8.63;;
5867;SDS011;2960;49.142;7.768;2022-08-19T09:36:26;16.43;;;8.00;;
5867;SDS011;2960;49.142;7.768;2022-08-19T09:38:57;18.07;;;9.57;;
5867;SDS011;2960;49.142;7.768;2022-08-19T09:41:26;16.23;;;8.27;;
5867;SDS011;2960;49.142;7.768;2022-08-19T09:43:54;16.63;;;8.17;;
5867;SDS011;2960;49.142;7.768;2022-08-19T09:46:24;15.50;;;8.17;;
5867;SDS011;2960;49.142;7.768;2022-08-19T09:48:56;16.53;;;8.90;;
5867;SDS011;2960;49.142;7.768;2022-08-19T09:51:25;15.87;;;8.00;;
5867;SDS011;2960;49.142;7.768;2022-08-19T09:53:54;18.07;;;8.77;;
5867;SDS011;2960;49.142;7.768;2022-08-19T09:56:26;16.00;;;7.83;;
5867;SDS011;2960;49.142;7.768;2022-08-19T09:58:54;15.63;;;7.87;;
5867;SDS011;2960;49.142;7.768;2022-08-19T10:01:22;15.73;;;7.80;;
5867;SDS011;2960;49.142;7.768;2022-08-19T10:03:55;16.00;;;7.80;;
5867;SDS011;2960;49.142;7.768;2022-08-19T10:06:25;16.80;;;8.63;;
5867;SDS011;2960;49.142;7.768;2022-08-19T10:08:57;15.20;;;7.77;;
5867;SDS011;2960;49.142;7.768;2022-08-19T10:11:25;16.60;;;8.37;;
5867;SDS011;2960;49.142;7.768;2022-08-19T10:13:54;17.07;;;8.23;;
5867;SDS011;2960;49.142;7.768;2022-08-19T10:16:22;16.83;;;8.10;;
5867;SDS011;2960;49.142;7.768;2022-08-19T10:18:50;14.90;;;7.47;;
5867;SDS011;2960;49.142;7.768;2022-08-19T10:21:20;14.73;;;7.70;;
5867;SDS011;2960;49.142;7.768;2022-08-19T10:23:51;15.13;;;7.90;;
5867;SDS011;2960;49.142;7.768;2022-08-19T10:26:22;16.10;;;7.77;;
5867;SDS011;2960;49.142;7.768;2022-08-19T10:28:51;15.00;;;7.47;;
5867;SDS011;2960;49.142;7.768;2022-08-19T10:31:20;16.43;;;8.50;;
5867;SDS011;2960;49.142;7.768;2022-08-19T10:33:54;18.13;;;8.50;;
5867;SDS011;2960;49.142;7.768;2022-08-19T10:36:26;15.00;;;8.03;;
5867;SDS011;2960;49.142;7.768;2022-08-19T10:38:55;15.57;;;8.00;;
5867;SDS011;2960;49.142;7.768;2022-08-19T10:41:30;17.30;;;7.53;;
5867;SDS011;2960;49.142;7.768;2022-08-19T10:44:00;15.43;;;7.50;;
5867;SDS011;2960;49.142;7.768;2022-08-19T10:46:31;14.03;;;7.07;;
5867;SDS011;2960;49.142;7.768;2022-08-19T10:49:00;13.83;;;6.97;;
5867;SDS011;2960;49.142;7.768;2022-08-19T10:51:30;16.30;;;7.60;;
5867;SDS011;2960;49.142;7.768;2022-08-19T10:54:15;12.97;;;5.97;;
5867;SDS011;2960;49.142;7.768;2022-08-19T10:56:43;14.30;;;6.33;;
5867;SDS011;2960;49.142;7.768;2022-08-19T10:59:19;14.90;;;6.40;;
5867;SDS011;2960;49.142;7.768;2022-08-19T11:01:49;12.90;;;5.70;;
5867;SDS011;2960;49.142;7.768;2022-08-19T11:04:17;13.50;;;6.00;;
5867;SDS011;2960;49.142;7.768;2022-08-19T11:06:47;13.83;;;6.00;;
5867;SDS011;2960;49.142;7.768;2022-08-19T11:09:16;13.90;;;6.33;;
5867;SDS011;2960;49.142;7.768;2022-08-19T11:11:45;13.50;;;6.60;;
5867;SDS011;2960;49.142;7.768;2022-08-19T11:14:16;13.50;;;5.80;;
5867;SDS011;2960;49.142;7.768;2022-08-19T11:16:45;14.63;;;7.40;;
5867;SDS011;2960;49.142;7.768;2022-08-19T11:19:13;12.27;;;5.60;;
5867;SDS011;2960;49.142;7.768;2022-08-19T11:21:42;12.53;;;5.60;;
5867;SDS011;2960;49.142;7.768;2022-08-19T11:24:15;13.20;;;6.00;;
5867;SDS011;2960;49.142;7.768;2022-08-19T11:26:47;12.00;;;5.40;;
5867;SDS011;2960;49.142;7.768;2022-08-19T11:29:17;12.57;;;5.77;;
5867;SDS011;2960;49.142;7.768;2022-08-19T11:31:51;12.83;;;5.80;;
5867;SDS011;2960;49.142;7.768;2022-08-19T11:34:19;12.80;;;5.63;;
5867;SDS011;2960;49.142;7.768;2022-08-19T11:36:49;12.47;;;5.40;;
5867;SDS011;2960;49.142;7.768;2022-08-19T11:39:20;12.43;;;5.40;;
5867;SDS011;2960;49.142;7.768;2022-08-19T11:41:48;12.80;;;5.30;;
5867;SDS011;2960;49.142;7.768;2022-08-19T11:44:15;12.77;;;5.60;;
5867;SDS011;2960;49.142;7.768;2022-08-19T11:46:44;12.40;;;5.40;;
5867;SDS011;2960;49.142;7.768;2022-08-19T11:49:12;13.00;;;5.83;;
5867;SDS011;2960;49.142;7.768;2022-08-19T11:51:41;12.80;;;5.43;;
5867;SDS011;2960;49.142;7.768;2022-08-19T11:54:09;13.30;;;6.60;;
5867;SDS011;2960;49.142;7.768;2022-08-19T11:56:39;13.30;;;6.07;;
5867;SDS011;2960;49.142;7.768;2022-08-19T11:59:07;13.80;;;6.50;;
5867;SDS011;2960;49.142;7.768;2022-08-19T12:01:35;13.97;;;6.87;;
5867;SDS011;2960;49.142;7.768;2022-08-19T12:04:05;14.00;;;6.57;;
5867;SDS011;2960;49.142;7.768;2022-08-19T12:06:33;13.17;;;6.60;;
5867;SDS011;2960;49.142;7.768;2022-08-19T12:09:02;13.10;;;6.70;;
5867;SDS011;2960;49.142;7.768;2022-08-19T12:11:33;14.50;;;6.73;;
5867;SDS011;2960;49.142;7.768;2022-08-19T12:14:03;14.10;;;6.30;;
5867;SDS011;2960;49.142;7.768;2022-08-19T12:16:31;14.20;;;6.63;;
5867;SDS011;2960;49.142;7.768;2022-08-19T12:18:59;13.23;;;5.97;;
5867;SDS011;2960;49.142;7.768;2022-08-19T12:21:29;13.20;;;5.73;;
5867;SDS011;2960;49.142;7.768;2022-08-19T12:24:00;13.90;;;5.90;;
5867;SDS011;2960;49.142;7.768;2022-08-19T12:26:29;12.63;;;6.30;;
5867;SDS011;2960;49.142;7.768;2022-08-19T12:28:57;13.17;;;6.07;;
5867;SDS011;2960;49.142;7.768;2022-08-19T12:31:26;13.63;;;6.40;;
5867;SDS011;2960;49.142;7.768;2022-08-19T12:33:54;12.53;;;5.53;;
5867;SDS011;2960;49.142;7.768;2022-08-19T12:36:22;12.30;;;5.10;;
5867;SDS011;2960;49.142;7.768;2022-08-19T12:38:50;13.67;;;6.07;;
5867;SDS011;2960;49.142;7.768;2022-08-19T12:41:19;14.07;;;6.53;;
5867;SDS011;2960;49.142;7.768;2022-08-19T12:43:47;14.60;;;5.40;;
5867;SDS011;2960;49.142;7.768;2022-08-19T12:46:15;14.10;;;6.60;;
5867;SDS011;2960;49.142;7.768;2022-08-19T12:48:44;13.17;;;5.90;;
5867;SDS011;2960;49.142;7.768;2022-08-19T12:51:12;12.60;;;5.37;;
5867;SDS011;2960;49.142;7.768;2022-08-19T12:53:43;13.10;;;5.57;;
5867;SDS011;2960;49.142;7.768;2022-08-19T12:56:10;12.50;;;6.10;;
5867;SDS011;2960;49.142;7.768;2022-08-19T12:58:40;12.60;;;5.77;;
5867;SDS011;2960;49.142;7.768;2022-08-19T13:01:09;13.70;;;6.40;;
5867;SDS011;2960;49.142;7.768;2022-08-19T13:03:37;13.80;;;6.30;;
5867;SDS011;2960;49.142;7.768;2022-08-19T13:06:07;13.50;;;6.27;;
5867;SDS011;2960;49.142;7.768;2022-08-19T13:08:35;13.60;;;6.03;;
5867;SDS011;2960;49.142;7.768;2022-08-19T13:11:07;12.57;;;6.20;;
5867;SDS011;2960;49.142;7.768;2022-08-19T13:13:37;12.53;;;5.70;;
5867;SDS011;2960;49.142;7.768;2022-08-19T13:16:06;13.10;;;5.87;;
5867;SDS011;2960;49.142;7.768;2022-08-19T13:18:34;12.73;;;5.67;;
5867;SDS011;2960;49.142;7.768;2022-08-19T13:21:02;12.40;;;5.57;;
5867;SDS011;2960;49.142;7.768;2022-08-19T13:23:32;13.10;;;6.03;;
5867;SDS011;2960;49.142;7.768;2022-08-19T13:26:01;13.53;;;5.67;;
5867;SDS011;2960;49.142;7.768;2022-08-19T13:28:30;12.50;;;5.93;;
5867;SDS011;2960;49.142;7.768;2022-08-19T13:31:14;13.13;;;5.60;;
5867;SDS011;2960;49.142;7.768;2022-08-19T13:34:02;12.70;;;5.57;;
5867;SDS011;2960;49.142;7.768;2022-08-19T13:36:30;13.30;;;6.17;;
5867;SDS011;2960;49.142;7.768;2022-08-19T13:38:59;12.80;;;5.80;;
5867;SDS011;2960;49.142;7.768;2022-08-19T13:41:26;13.17;;;6.00;;
5867;SDS011;2960;49.142;7.768;2022-08-19T13:43:57;12.10;;;5.13;;
5867;SDS011;2960;49.142;7.768;2022-08-19T13:46:24;12.20;;;5.30;;
5867;SDS011;2960;49.142;7.768;2022-08-19T13:48:52;12.97;;;5.73;;
5867;SDS011;2960;49.142;7.768;2022-08-19T13:51:19;12.30;;;5.40;;
5867;SDS011;2960;49.142;7.768;2022-08-19T13:53:46;12.60;;;5.50;;
5867;SDS011;2960;49.142;7.768;2022-08-19T13:56:17;12.40;;;5.80;;
5867;SDS011;2960;49.142;7.768;2022-08-19T13:58:45;12.03;;;5.23;;
5867;SDS011;2960;49.142;7.768;2022-08-19T14:01:12;11.53;;;5.27;;
5867;SDS011;2960;49.142;7.768;2022-08-19T14:03:46;12.53;;;5.67;;
5867;SDS011;2960;49.142;7.768;2022-08-19T14:06:13;12.13;;;5.83;;
5867;SDS011;2960;49.142;7.768;2022-08-19T14:08:41;13.10;;;5.80;;
5867;SDS011;2960;49.142;7.768;2022-08-19T14:11:09;12.73;;;6.07;;
5867;SDS011;2960;49.142;7.768;2022-08-19T14:13:38;12.13;;;5.40;;
5867;SDS011;2960;49.142;7.768;2022-08-19T14:16:08;12.40;;;5.57;;
5867;SDS011;2960;49.142;7.768;2022-08-19T14:18:37;13.20;;;5.30;;
5867;SDS011;2960;49.142;7.768;2022-08-19T14:21:05;12.73;;;5.70;;
5867;SDS011;2960;49.142;7.768;2022-08-19T14:23:32;13.03;;;5.43;;
5867;SDS011;2960;49.142;7.768;2022-08-19T14:26:04;13.37;;;5.93;;
5867;SDS011;2960;49.142;7.768;2022-08-19T14:28:35;13.43;;;5.70;;
5867;SDS011;2960;49.142;7.768;2022-08-19T14:31:03;12.83;;;5.47;;
5867;SDS011;2960;49.142;7.768;2022-08-19T14:33:31;13.50;;;6.07;;
5867;SDS011;2960;49.142;7.768;2022-08-19T14:35:58;12.30;;;5.77;;
5867;SDS011;2960;49.142;7.768;2022-08-19T14:38:26;11.97;;;5.30;;
5867;SDS011;2960;49.142;7.768;2022-08-19T14:40:56;12.60;;;5.40;;
5867;SDS011;2960;49.142;7.768;2022-08-19T14:43:32;11.77;;;5.57;;
5867;SDS011;2960;49.142;7.768;2022-08-19T14:46:00;14.07;;;6.27;;
5867;SDS011;2960;49.142;7.768;2022-08-19T14:48:28;13.90;;;6.80;;
5867;SDS011;2960;49.142;7.768;2022-08-19T14:50:56;14.00;;;6.80;;
5867;SDS011;2960;49.142;7.768;2022-08-19T14:53:23;15.07;;;7.50;;
5867;SDS011;2960;49.142;7.768;2022-08-19T14:55:50;17.60;;;7.77;;
5867;SDS011;2960;49.142;7.768;2022-08-19T14:58:17;14.70;;;7.20;;
5867;SDS011;2960;49.142;7.768;2022-08-19T15:00:45;15.30;;;7.80;;
5867;SDS011;2960;49.142;7.768;2022-08-19T15:03:12;15.30;;;7.50;;
5867;SDS011;2960;49.142;7.768;2022-08-19T15:05:40;16.73;;;8.10;;
5867;SDS011;2960;49.142;7.768;2022-08-19T15:08:08;15.70;;;7.37;;
5867;SDS011;2960;49.142;7.768;2022-08-19T15:10:35;15.50;;;7.40;;
5867;SDS011;2960;49.142;7.768;2022-08-19T15:13:04;14.70;;;7.30;;
5867;SDS011;2960;49.142;7.768;2022-08-19T15:15:32;14.33;;;6.53;;
5867;SDS011;2960;49.142;7.768;2022-08-19T15:18:00;15.93;;;8.23;;